createdAt,value
2023-10-20T00:00:47.912Z,18.13
2023-10-20T00:03:50.994Z,18.13
2023-10-20T00:06:52.708Z,18.13
2023-10-20T00:09:54.379Z,18.06
2023-10-20T00:12:56.052Z,18.01
2023-10-20T00:15:57.882Z,17.96
2023-10-20T00:19:00.972Z,17.92
2023-10-20T00:22:02.675Z,17.92
2023-10-20T00:25:04.898Z,17.90
2023-10-20T00:28:06.838Z,17.82
2023-10-20T00:31:08.561Z,17.79
2023-10-20T00:34:11.650Z,17.71
2023-10-20T00:37:13.360Z,17.74
2023-10-20T00:40:15.576Z,17.72
2023-10-20T00:43:17.371Z,17.75
2023-10-20T00:46:19.642Z,17.74
2023-10-20T00:49:22.989Z,17.73
2023-10-20T00:52:24.647Z,17.74
2023-10-20T00:55:26.452Z,17.72
2023-10-20T00:58:29.644Z,17.71
2023-10-20T01:01:32.184Z,17.73
2023-10-20T01:04:35.404Z,17.68
2023-10-20T01:07:37.133Z,17.64
2023-10-20T01:10:38.792Z,17.59
2023-10-20T01:13:40.489Z,17.59
2023-10-20T01:16:42.211Z,17.52
2023-10-20T01:19:45.317Z,17.46
2023-10-20T01:22:47.016Z,17.50
2023-10-20T01:25:50.127Z,17.47
2023-10-20T01:28:51.823Z,17.41
2023-10-20T01:31:53.514Z,17.38
2023-10-20T01:34:55.189Z,17.41
2023-10-20T01:37:56.912Z,17.43
2023-10-20T01:41:00.015Z,17.48
2023-10-20T01:44:01.795Z,17.40
2023-10-20T01:47:03.625Z,17.40
2023-10-20T01:50:06.139Z,17.36
2023-10-20T01:53:07.980Z,17.39
2023-10-20T01:56:11.164Z,17.33
2023-10-20T01:59:12.894Z,17.27
2023-10-20T02:02:14.660Z,17.30
2023-10-20T02:05:16.649Z,17.31
2023-10-20T02:08:18.519Z,17.30
2023-10-20T02:11:21.670Z,17.24
2023-10-20T02:14:23.387Z,17.24
2023-10-20T02:17:25.269Z,17.23
2023-10-20T02:20:27.011Z,17.17
2023-10-20T02:23:28.717Z,17.16
2023-10-20T02:26:31.877Z,17.14
2023-10-20T02:29:33.685Z,17.22
2023-10-20T02:32:35.482Z,17.06
2023-10-20T02:35:41.053Z,16.98
2023-10-20T02:38:42.810Z,16.96
2023-10-20T02:41:45.905Z,16.91
2023-10-20T02:44:47.569Z,16.85
2023-10-20T02:47:51.634Z,16.78
2023-10-20T02:50:53.528Z,16.80
2023-10-20T02:53:55.237Z,16.73
2023-10-20T02:56:58.304Z,16.70
2023-10-20T03:00:00.022Z,16.71
2023-10-20T03:03:01.783Z,16.70
2023-10-20T03:06:04.925Z,16.74
2023-10-20T03:09:06.579Z,16.63
2023-10-20T03:12:09.608Z,16.53
2023-10-20T03:15:11.497Z,16.51
2023-10-20T03:18:13.188Z,16.44
2023-10-20T03:21:14.898Z,16.49
2023-10-20T03:24:16.596Z,16.54
2023-10-20T03:27:19.770Z,16.51
2023-10-20T03:30:21.493Z,16.52
2023-10-20T03:33:23.293Z,16.57
2023-10-20T03:36:25.103Z,16.58
2023-10-20T03:39:26.783Z,16.56
2023-10-20T03:42:29.821Z,16.61
2023-10-20T03:45:31.570Z,16.67
2023-10-20T03:48:33.502Z,16.74
2023-10-20T03:51:35.153Z,16.77
2023-10-20T03:54:36.864Z,16.77
2023-10-20T03:57:39.982Z,16.89
2023-10-20T04:00:41.687Z,17.03
2023-10-20T04:03:43.449Z,17.06
2023-10-20T04:06:45.371Z,17.09
2023-10-20T04:09:47.103Z,17.18
2023-10-20T04:12:50.203Z,17.22
2023-10-20T04:15:52.132Z,17.27
2023-10-20T04:18:53.816Z,17.27
2023-10-20T04:21:55.503Z,17.26
2023-10-20T04:24:57.202Z,17.30
2023-10-20T04:28:00.575Z,17.33
2023-10-20T04:31:02.069Z,17.34
2023-10-20T04:34:03.793Z,17.29
2023-10-20T04:37:07.188Z,17.28
2023-10-20T04:40:11.628Z,17.23
2023-10-20T04:43:14.872Z,17.26
2023-10-20T04:46:16.539Z,17.28
2023-10-20T04:49:18.248Z,17.32
2023-10-20T04:52:19.987Z,17.33
2023-10-20T04:55:21.738Z,17.33
2023-10-20T04:58:24.786Z,17.37
2023-10-20T05:01:26.523Z,17.47
2023-10-20T05:04:28.847Z,17.57
2023-10-20T05:07:30.522Z,17.65
2023-10-20T05:10:33.044Z,17.69
2023-10-20T05:13:36.205Z,17.67
2023-10-20T05:16:37.920Z,17.67
2023-10-20T05:19:40.333Z,17.69
2023-10-20T05:22:42.295Z,17.71
2023-10-20T05:25:47.659Z,17.76
2023-10-20T05:28:50.697Z,17.78
2023-10-20T05:31:52.388Z,17.77
2023-10-20T05:34:54.077Z,17.74
2023-10-20T05:37:55.792Z,17.77
2023-10-20T05:40:58.373Z,17.77
2023-10-20T05:44:01.445Z,17.76
2023-10-20T05:47:03.138Z,17.81
2023-10-20T05:50:05.792Z,17.85
2023-10-20T05:53:07.697Z,17.82
2023-10-20T05:56:11.440Z,17.82
2023-10-20T05:59:14.820Z,17.84
2023-10-20T06:02:16.574Z,17.84
2023-10-20T06:05:18.307Z,17.86
2023-10-20T06:08:20.057Z,17.86
2023-10-20T06:11:21.816Z,17.87
2023-10-20T06:14:24.946Z,17.90
2023-10-20T06:17:26.846Z,17.92
2023-10-20T06:20:28.632Z,17.87
2023-10-20T06:23:30.361Z,17.87
2023-10-20T06:26:32.098Z,17.94
2023-10-20T06:29:35.340Z,17.98
2023-10-20T06:32:37.037Z,18.00
2023-10-20T06:35:38.834Z,18.06
2023-10-20T06:38:40.580Z,18.09
2023-10-20T06:41:42.554Z,18.21
2023-10-20T06:44:45.685Z,18.25
2023-10-20T06:47:47.510Z,18.33
2023-10-20T06:50:49.447Z,18.38
2023-10-20T06:53:52.774Z,18.42
2023-10-20T06:56:56.521Z,18.44
2023-10-20T06:59:59.562Z,18.46
2023-10-20T07:03:01.360Z,18.52
2023-10-20T07:06:03.532Z,18.56
2023-10-20T07:09:05.470Z,18.57
2023-10-20T07:12:08.903Z,18.62
2023-10-20T07:15:13.512Z,18.74
2023-10-20T07:18:15.309Z,18.84
2023-10-20T07:21:17.017Z,18.83
2023-10-20T07:24:18.701Z,18.95
2023-10-20T07:27:20.424Z,19.09
2023-10-20T07:30:23.639Z,19.16
2023-10-20T07:33:25.369Z,19.30
2023-10-20T07:36:27.049Z,19.41
2023-10-20T07:39:28.742Z,19.52
2023-10-20T07:42:30.448Z,19.60
2023-10-20T07:45:38.441Z,19.72
2023-10-20T07:48:40.378Z,19.76
2023-10-20T07:51:42.110Z,19.94
2023-10-20T07:54:43.769Z,20.10
2023-10-20T07:57:45.432Z,20.20
2023-10-20T08:00:48.442Z,20.32
2023-10-20T08:03:50.484Z,20.37
2023-10-20T08:06:52.455Z,20.43
2023-10-20T08:09:54.355Z,20.49
2023-10-20T08:12:56.101Z,20.54
2023-10-20T08:16:02.206Z,20.58
2023-10-20T08:19:04.175Z,20.61
2023-10-20T08:22:05.832Z,20.62
2023-10-20T08:25:08.765Z,20.63
2023-10-20T08:28:10.448Z,20.63
2023-10-20T08:31:13.622Z,20.66
2023-10-20T08:34:15.303Z,20.65
2023-10-20T08:37:17.177Z,20.67
2023-10-20T08:40:19.027Z,20.73
2023-10-20T08:43:20.977Z,20.77
2023-10-20T08:46:24.168Z,20.85
2023-10-20T08:49:26.347Z,20.94
2023-10-20T08:52:28.712Z,21.01
2023-10-20T08:55:30.359Z,21.11
2023-10-20T08:58:32.499Z,21.17
2023-10-20T09:01:36.355Z,21.14
2023-10-20T09:04:38.162Z,21.18
2023-10-20T09:07:39.960Z,21.21
2023-10-20T09:10:43.558Z,21.28
2023-10-20T09:13:47.713Z,21.31
2023-10-20T09:16:51.364Z,21.32
2023-10-20T09:19:53.021Z,21.40
2023-10-20T09:22:54.762Z,21.48
2023-10-20T09:25:56.417Z,21.52
2023-10-20T09:29:01.625Z,21.61
2023-10-20T09:32:05.065Z,21.76
2023-10-20T09:35:07.719Z,21.90
2023-10-20T09:38:11.375Z,22.04
2023-10-20T09:41:14.517Z,22.15
2023-10-20T09:44:22.325Z,22.27
2023-10-20T09:47:29.520Z,22.42
2023-10-20T09:50:33.078Z,22.67
2023-10-20T09:53:34.902Z,22.81
2023-10-20T09:56:37.105Z,22.97
2023-10-20T09:59:39.785Z,23.21
2023-10-20T10:02:42.994Z,23.44
2023-10-20T10:05:46.955Z,23.52
2023-10-20T10:08:49.041Z,23.66
2023-10-20T10:11:55.715Z,23.81
2023-10-20T10:14:58.591Z,24.06
2023-10-20T10:18:09.100Z,24.22
2023-10-20T10:21:10.896Z,24.28
2023-10-20T10:24:14.274Z,24.30
2023-10-20T10:27:16.533Z,24.29
2023-10-20T10:30:27.401Z,24.34
2023-10-20T10:33:30.543Z,24.42
2023-10-20T10:36:42.927Z,24.47
2023-10-20T10:39:44.667Z,24.44
2023-10-20T10:42:47.799Z,24.52
2023-10-20T10:45:53.767Z,24.65
2023-10-20T10:49:07.593Z,24.69
2023-10-20T10:52:09.294Z,24.71
2023-10-20T10:55:11.000Z,24.72
2023-10-20T10:58:13.838Z,24.80
2023-10-20T11:01:15.658Z,24.87
2023-10-20T11:04:19.314Z,24.96
2023-10-20T11:07:21.360Z,24.92
2023-10-20T11:10:25.425Z,24.98
2023-10-20T11:13:28.527Z,25.11
2023-10-20T11:16:30.112Z,25.19
2023-10-20T11:19:33.528Z,25.23
2023-10-20T11:22:38.239Z,25.27
2023-10-20T11:25:40.482Z,25.44
2023-10-20T11:28:42.173Z,25.51
2023-10-20T11:31:43.847Z,25.51
2023-10-20T11:34:46.953Z,25.57
2023-10-20T11:37:49.013Z,25.65
2023-10-20T11:40:51.050Z,25.76
2023-10-20T11:43:52.977Z,25.96
2023-10-20T11:46:55.075Z,26.10
2023-10-20T11:49:58.068Z,26.19
2023-10-20T11:52:59.549Z,26.17
2023-10-20T11:56:01.236Z,26.12
2023-10-20T11:59:02.904Z,26.09
2023-10-20T12:02:04.594Z,25.98
2023-10-20T12:05:08.755Z,25.98
2023-10-20T12:08:10.470Z,25.90
2023-10-20T12:11:12.233Z,25.88
2023-10-20T12:14:13.924Z,25.83
2023-10-20T12:17:15.775Z,25.83
2023-10-20T12:20:18.940Z,25.90
2023-10-20T12:23:20.665Z,25.79
2023-10-20T12:26:22.441Z,25.84
2023-10-20T12:29:24.278Z,25.71
2023-10-20T12:32:26.093Z,25.67
2023-10-20T12:35:29.347Z,25.60
2023-10-20T12:38:32.074Z,25.56
2023-10-20T12:41:33.951Z,25.50
2023-10-20T12:44:36.226Z,25.49
2023-10-20T12:47:38.390Z,25.42
2023-10-20T12:50:41.559Z,25.36
2023-10-20T12:53:43.352Z,25.33
2023-10-20T12:56:45.117Z,25.22
2023-10-20T12:59:46.928Z,25.14
2023-10-20T13:02:48.727Z,25.08
2023-10-20T13:05:51.949Z,25.05
2023-10-20T13:08:53.706Z,25.01
2023-10-20T13:11:55.589Z,24.95
2023-10-20T13:14:57.308Z,24.95
2023-10-20T13:17:59.212Z,24.97
2023-10-20T13:21:04.531Z,24.92
2023-10-20T13:24:07.026Z,24.90
2023-10-20T13:27:08.709Z,24.89
2023-10-20T13:30:11.007Z,24.78
2023-10-20T13:33:12.798Z,24.76
2023-10-20T13:36:18.229Z,24.74
2023-10-20T13:42:32.405Z,24.81
2023-10-20T13:45:34.093Z,24.82
2023-10-20T13:48:35.875Z,24.83
2023-10-20T13:51:38.968Z,24.82
2023-10-20T13:54:40.474Z,24.78
2023-10-20T13:57:42.158Z,24.74
2023-10-20T14:00:44.001Z,24.74
2023-10-20T14:03:45.997Z,24.62
2023-10-20T14:06:49.170Z,24.61
2023-10-20T14:09:50.694Z,24.63
2023-10-20T14:12:52.343Z,24.61
2023-10-20T14:15:54.059Z,24.57
2023-10-20T14:18:55.773Z,24.55
2023-10-20T14:21:58.897Z,24.53
2023-10-20T14:25:00.566Z,24.50
2023-10-20T14:28:02.259Z,24.53
2023-10-20T14:31:05.106Z,24.47
2023-10-20T14:34:06.800Z,24.50
2023-10-20T14:37:09.868Z,24.62
2023-10-20T14:40:11.894Z,24.58
2023-10-20T14:43:13.680Z,24.55
2023-10-20T14:46:15.387Z,24.57
2023-10-20T14:49:17.121Z,24.52
2023-10-20T14:52:20.246Z,24.51
2023-10-20T14:55:21.747Z,24.50
2023-10-20T14:58:23.400Z,24.49
2023-10-20T15:01:25.135Z,24.48
2023-10-20T15:04:30.821Z,24.50
2023-10-20T15:07:34.291Z,24.51
2023-10-20T15:10:36.133Z,24.53
2023-10-20T15:13:37.797Z,24.55
2023-10-20T15:16:39.528Z,24.59
2023-10-20T15:19:41.278Z,24.56
2023-10-20T15:22:44.344Z,24.60
2023-10-20T15:25:46.405Z,24.54
2023-10-20T15:28:48.268Z,24.57
2023-10-20T15:31:50.062Z,24.58
2023-10-20T15:34:51.865Z,24.64
2023-10-20T15:37:54.905Z,24.60
2023-10-20T15:40:57.757Z,24.53
2023-10-20T15:43:59.436Z,24.51
2023-10-20T15:47:01.137Z,24.56
2023-10-20T15:50:02.878Z,24.58
2023-10-20T15:53:05.973Z,24.55
2023-10-20T15:56:07.465Z,24.53
2023-10-20T15:59:09.189Z,24.56
2023-10-20T16:02:10.881Z,24.56
2023-10-20T16:05:12.658Z,24.60
2023-10-20T16:08:15.655Z,24.56
2023-10-20T16:11:17.363Z,24.56
2023-10-20T16:14:19.122Z,24.58
2023-10-20T16:17:20.783Z,24.53
2023-10-20T16:20:22.794Z,24.63
2023-10-20T16:23:25.896Z,24.63
2023-10-20T16:26:27.444Z,24.56
2023-10-20T16:29:29.169Z,24.61
2023-10-20T16:32:31.266Z,24.53
2023-10-20T16:35:33.127Z,24.51
2023-10-20T16:38:36.573Z,24.46
2023-10-20T16:41:38.560Z,24.45
2023-10-20T16:44:40.640Z,24.46
2023-10-20T16:47:42.537Z,24.40
2023-10-20T16:50:44.836Z,24.44
2023-10-20T16:53:48.413Z,24.38
2023-10-20T16:56:52.576Z,24.37
2023-10-20T16:59:54.396Z,24.29
2023-10-20T17:02:56.331Z,24.24
2023-10-20T17:05:58.710Z,24.21
2023-10-20T17:09:02.385Z,24.21
2023-10-20T17:12:05.592Z,24.20
2023-10-20T17:15:07.990Z,24.10
2023-10-20T17:18:10.257Z,24.15
2023-10-20T17:21:12.527Z,24.14
2023-10-20T17:24:16.204Z,24.21
2023-10-20T17:27:19.012Z,24.10
2023-10-20T17:30:20.854Z,24.13
2023-10-20T17:33:23.110Z,24.10
2023-10-20T17:36:25.932Z,24.08
2023-10-20T17:39:29.770Z,24.12
2023-10-20T17:42:32.148Z,24.07
2023-10-20T17:45:38.733Z,24.06
2023-10-20T17:48:41.558Z,23.97
2023-10-20T17:51:43.541Z,23.99
2023-10-20T17:54:47.345Z,23.98
2023-10-20T17:57:50.050Z,23.99
2023-10-20T18:00:52.303Z,23.91
2023-10-20T18:03:54.408Z,23.86
2023-10-20T18:06:56.686Z,23.82
2023-10-20T18:10:00.751Z,23.74
2023-10-20T18:13:03.690Z,23.69
2023-10-20T18:16:05.465Z,23.66
2023-10-20T18:19:08.150Z,23.65
2023-10-20T18:22:11.032Z,23.58
2023-10-20T18:25:16.768Z,23.59
2023-10-20T18:28:19.922Z,23.56
2023-10-20T18:31:22.258Z,23.49
2023-10-20T18:34:24.123Z,23.38
2023-10-20T18:37:28.040Z,23.32
2023-10-20T18:40:35.029Z,23.22
2023-10-20T18:43:39.023Z,23.11
2023-10-20T18:46:42.216Z,23.01
2023-10-20T18:49:45.456Z,22.92
2023-10-20T18:52:47.922Z,22.85
2023-10-20T18:55:52.411Z,22.79
2023-10-20T18:58:55.375Z,22.78
2023-10-20T19:02:00.889Z,22.78
2023-10-20T19:05:04.379Z,22.75
2023-10-20T19:08:10.742Z,22.69
2023-10-20T19:11:15.390Z,22.72
2023-10-20T19:14:20.232Z,22.75
2023-10-20T19:17:23.498Z,22.74
2023-10-20T19:20:26.847Z,22.75
2023-10-20T19:23:30.503Z,22.73
2023-10-20T19:26:37.731Z,22.76
2023-10-20T19:29:40.737Z,22.78
2023-10-20T19:32:42.572Z,22.82
2023-10-20T19:35:44.602Z,22.85
2023-10-20T19:38:47.530Z,22.80
2023-10-20T19:41:52.085Z,22.72
2023-10-20T19:44:56.672Z,22.63
2023-10-20T19:48:00.421Z,22.53
2023-10-20T19:51:02.941Z,22.42
2023-10-20T19:54:08.627Z,22.37
2023-10-20T19:57:13.420Z,22.31
2023-10-20T20:00:16.107Z,22.31
2023-10-20T20:03:18.575Z,22.26
2023-10-20T20:06:20.956Z,22.22
2023-10-20T20:09:23.522Z,22.24
2023-10-20T20:12:27.135Z,22.25
2023-10-20T20:15:28.880Z,22.25
2023-10-20T20:18:32.557Z,22.24
2023-10-20T20:21:34.333Z,22.19
2023-10-20T20:24:36.460Z,22.23
2023-10-20T20:27:40.060Z,22.19
2023-10-20T20:30:42.066Z,22.17
2023-10-20T20:33:43.843Z,22.20
2023-10-20T20:36:45.794Z,22.18
2023-10-20T20:39:47.498Z,22.12
2023-10-20T20:42:50.670Z,22.05
2023-10-20T20:45:52.692Z,21.99
2023-10-20T20:48:54.501Z,21.87
2023-10-20T20:51:56.222Z,21.83
2023-10-20T20:54:57.947Z,21.74
2023-10-20T20:58:01.029Z,21.76
2023-10-20T21:01:08.733Z,21.79
2023-10-20T21:04:10.850Z,21.84
2023-10-20T21:07:12.657Z,21.87
2023-10-20T21:10:14.451Z,21.97
2023-10-20T21:13:17.517Z,22.07
2023-10-20T21:16:19.213Z,22.12
2023-10-20T21:19:20.922Z,22.10
2023-10-20T21:22:22.715Z,22.10
2023-10-20T21:25:24.423Z,22.10
2023-10-20T21:28:27.504Z,22.22
2023-10-20T21:31:29.086Z,22.31
2023-10-20T21:34:30.764Z,22.36
2023-10-20T21:37:32.459Z,22.41
2023-10-20T21:40:34.192Z,22.45
2023-10-20T21:43:37.303Z,22.60
2023-10-20T21:46:38.946Z,22.76
2023-10-20T21:49:40.690Z,22.78
2023-10-20T21:52:42.928Z,22.88
2023-10-20T21:55:44.578Z,22.87
2023-10-20T21:58:47.669Z,22.84
2023-10-20T22:02:08.290Z,22.94
2023-10-20T22:05:11.164Z,22.95
2023-10-20T22:08:12.834Z,22.95
2023-10-20T22:11:14.532Z,23.14
2023-10-20T22:14:17.594Z,23.14
2023-10-20T22:17:19.281Z,23.08
2023-10-20T22:20:20.950Z,23.15
2023-10-20T22:23:22.671Z,23.10
2023-10-20T22:26:24.375Z,23.12
2023-10-20T22:29:27.418Z,23.09
2023-10-20T22:32:29.164Z,23.06
2023-10-20T22:35:30.859Z,23.07
2023-10-20T22:38:32.724Z,23.04
2023-10-20T22:41:34.504Z,23.05
2023-10-20T22:44:37.616Z,23.00
2023-10-20T22:47:39.174Z,22.95
2023-10-20T22:50:42.494Z,22.92
2023-10-20T22:53:44.203Z,22.89
2023-10-20T22:56:45.975Z,22.90
2023-10-20T22:59:49.136Z,22.87
2023-10-20T23:02:50.741Z,22.88
2023-10-20T23:05:52.562Z,22.86
2023-10-20T23:08:54.327Z,22.80
2023-10-20T23:11:56.090Z,22.68
2023-10-20T23:14:59.399Z,22.65
2023-10-20T23:18:01.252Z,22.59
2023-10-20T23:21:03.137Z,22.61
2023-10-20T23:24:05.561Z,22.63
2023-10-20T23:27:07.391Z,22.59
2023-10-20T23:30:11.984Z,22.60
2023-10-20T23:33:14.024Z,22.62
2023-10-20T23:36:15.795Z,22.60
2023-10-20T23:39:17.516Z,22.62
2023-10-20T23:42:19.229Z,22.75
2023-10-20T23:45:22.428Z,22.82
2023-10-20T23:48:24.035Z,22.85
2023-10-20T23:51:25.772Z,22.81
2023-10-20T23:54:27.442Z,22.89
2023-10-20T23:57:29.074Z,23.00
